createdAt,value
2022-12-26T00:00:28.059Z,58.06
2022-12-26T00:03:20.833Z,56.31
2022-12-26T00:05:53.829Z,57.73
2022-12-26T00:08:26.766Z,59.53
2022-12-26T00:11:00.455Z,63.82
2022-12-26T00:13:39.465Z,66.83
2022-12-26T00:16:15.369Z,65.30
2022-12-26T00:18:48.737Z,63.35
2022-12-26T00:21:22.680Z,62.12
2022-12-26T00:23:55.471Z,60.60
2022-12-26T00:26:30.575Z,58.35
2022-12-26T00:29:03.251Z,57.13
2022-12-26T00:31:37.221Z,58.12
2022-12-26T00:34:10.937Z,59.66
2022-12-26T00:36:43.485Z,63.93
2022-12-26T00:39:17.690Z,66.80
2022-12-26T00:41:50.269Z,65.57
2022-12-26T00:44:23.028Z,63.77
2022-12-26T00:46:55.569Z,61.85
2022-12-26T00:49:28.371Z,60.61
2022-12-26T00:52:21.534Z,57.28
2022-12-26T00:54:55.941Z,56.08
2022-12-26T00:57:28.523Z,57.27
2022-12-26T01:00:02.556Z,59.07
2022-12-26T01:02:41.336Z,63.52
2022-12-26T01:05:14.719Z,66.14
2022-12-26T01:08:19.446Z,65.07
2022-12-26T01:10:41.749Z,63.54
2022-12-26T01:13:15.831Z,61.69
2022-12-26T01:15:52.880Z,60.55
2022-12-26T01:18:25.514Z,59.97
2022-12-26T01:21:01.968Z,58.37
2022-12-26T01:23:34.687Z,57.14
2022-12-26T01:26:18.818Z,58.23
2022-12-26T01:28:54.299Z,59.68
2022-12-26T01:31:27.132Z,64.14
2022-12-26T01:33:59.941Z,66.83
2022-12-26T01:36:33.906Z,65.89
2022-12-26T01:39:06.607Z,64.14
2022-12-26T01:41:39.420Z,62.93
2022-12-26T01:44:42.114Z,62.24
2022-12-26T01:47:15.690Z,61.59
2022-12-26T01:49:50.852Z,61.14
2022-12-26T01:52:33.899Z,60.78
2022-12-26T01:55:09.285Z,61.04
2022-12-26T01:57:46.319Z,61.26
2022-12-26T02:00:19.822Z,60.64
2022-12-26T02:03:06.450Z,58.14
2022-12-26T02:05:40.040Z,56.24
2022-12-26T02:08:16.276Z,57.40
2022-12-26T02:10:52.041Z,58.96
2022-12-26T02:13:28.754Z,60.17
2022-12-26T02:16:01.343Z,65.45
2022-12-26T02:18:33.908Z,67.88
2022-12-26T02:21:26.070Z,65.10
2022-12-26T02:24:32.024Z,62.26
2022-12-26T02:27:26.323Z,60.89
2022-12-26T02:30:09.222Z,57.47
2022-12-26T02:33:03.041Z,56.17
2022-12-26T02:35:50.860Z,57.05
2022-12-26T02:38:36.211Z,58.79
2022-12-26T02:41:19.930Z,63.52
2022-12-26T02:44:24.512Z,67.21
2022-12-26T02:47:09.495Z,65.12
2022-12-26T02:50:20.898Z,62.65
2022-12-26T02:53:30.650Z,60.90
2022-12-26T02:56:25.229Z,56.35
2022-12-26T02:59:55.671Z,55.43
2022-12-26T03:02:42.994Z,56.25
2022-12-26T03:05:39.517Z,57.99
2022-12-26T03:08:35.992Z,59.64
2022-12-26T03:11:26.297Z,65.51
2022-12-26T03:14:12.442Z,67.95
2022-12-26T03:17:05.776Z,64.90
2022-12-26T03:19:58.576Z,62.57
2022-12-26T03:22:38.264Z,61.51
2022-12-26T03:25:31.864Z,60.67
2022-12-26T03:28:04.919Z,57.23
2022-12-26T03:30:52.627Z,56.59
2022-12-26T03:33:47.619Z,57.47
2022-12-26T03:36:31.079Z,58.92
2022-12-26T03:39:20.746Z,64.53
2022-12-26T03:42:20.297Z,66.56
2022-12-26T03:45:16.658Z,64.77
2022-12-26T03:48:16.242Z,63.39
2022-12-26T03:51:13.412Z,62.17
2022-12-26T03:54:08.600Z,60.87
2022-12-26T03:57:04.756Z,60.06
2022-12-26T04:00:02.763Z,57.43
2022-12-26T04:03:05.156Z,57.11
2022-12-26T04:05:58.156Z,58.80
2022-12-26T04:08:58.510Z,63.08
2022-12-26T04:11:51.176Z,65.90
2022-12-26T04:14:59.466Z,65.22
2022-12-26T04:17:53.704Z,64.09
2022-12-26T04:20:31.506Z,63.11
2022-12-26T04:23:28.648Z,61.77
2022-12-26T04:26:25.164Z,61.05
2022-12-26T04:29:15.661Z,60.39
2022-12-26T04:32:13.420Z,58.04
2022-12-26T04:35:12.969Z,57.63
2022-12-26T04:38:06.405Z,58.77
2022-12-26T04:41:01.185Z,64.17
2022-12-26T04:43:52.614Z,66.31
2022-12-26T04:46:26.978Z,64.65
2022-12-26T04:49:32.208Z,63.10
2022-12-26T04:52:06.755Z,62.28
2022-12-26T04:54:39.520Z,61.18
2022-12-26T04:57:14.073Z,60.73
2022-12-26T04:59:47.514Z,60.18
2022-12-26T05:02:37.799Z,57.74
2022-12-26T05:05:29.545Z,56.67
2022-12-26T05:08:21.329Z,58.34
2022-12-26T05:10:53.963Z,60.91
2022-12-26T05:13:28.028Z,65.54
2022-12-26T05:16:18.305Z,68.03
2022-12-26T05:19:08.569Z,66.46
2022-12-26T05:21:59.156Z,64.51
2022-12-26T05:24:53.720Z,63.27
2022-12-26T05:27:50.042Z,62.65
2022-12-26T05:30:23.100Z,62.13
2022-12-26T05:33:13.202Z,61.57
2022-12-26T05:35:45.866Z,61.42
2022-12-26T05:38:18.506Z,61.20
2022-12-26T05:40:51.015Z,60.61
2022-12-26T05:43:24.268Z,59.95
2022-12-26T05:45:57.779Z,59.79
2022-12-26T05:48:30.801Z,59.55
2022-12-26T05:51:05.290Z,58.30
2022-12-26T05:53:37.976Z,57.92
2022-12-26T05:56:15.033Z,59.27
2022-12-26T05:58:47.941Z,63.47
2022-12-26T06:01:22.529Z,66.20
2022-12-26T06:03:56.980Z,65.11
2022-12-26T06:06:31.082Z,63.99
2022-12-26T06:09:04.602Z,63.12
2022-12-26T06:11:37.117Z,62.21
2022-12-26T06:14:09.609Z,61.85
2022-12-26T06:16:42.589Z,61.58
2022-12-26T06:19:15.255Z,61.58
2022-12-26T06:21:49.123Z,61.10
2022-12-26T06:24:21.861Z,60.62
2022-12-26T06:26:54.788Z,60.26
2022-12-26T06:29:27.834Z,60.12
2022-12-26T06:32:01.755Z,59.85
2022-12-26T06:34:35.235Z,59.73
2022-12-26T06:37:07.974Z,59.61
2022-12-26T06:39:40.501Z,58.29
2022-12-26T06:42:13.144Z,57.55
2022-12-26T06:44:46.445Z,59.50
2022-12-26T06:47:19.107Z,62.97
2022-12-26T06:49:51.818Z,65.63
2022-12-26T06:52:24.466Z,64.76
2022-12-26T06:54:59.216Z,63.13
2022-12-26T06:57:32.878Z,62.50
2022-12-26T07:00:07.333Z,61.54
2022-12-26T07:02:40.147Z,60.38
2022-12-26T07:05:13.103Z,59.62
2022-12-26T07:07:45.732Z,57.95
2022-12-26T07:10:19.622Z,57.12
2022-12-26T07:12:52.800Z,58.76
2022-12-26T07:15:25.515Z,60.42
2022-12-26T07:17:58.700Z,64.08
2022-12-26T07:20:32.030Z,66.61
2022-12-26T07:23:07.057Z,65.76
2022-12-26T07:25:41.389Z,64.21
2022-12-26T07:28:14.146Z,62.80
2022-12-26T07:30:51.081Z,62.02
2022-12-26T07:33:23.962Z,61.41
2022-12-26T07:36:00.836Z,60.97
2022-12-26T07:38:34.025Z,61.03
2022-12-26T07:41:20.688Z,59.59
2022-12-26T07:43:53.605Z,57.36
2022-12-26T07:46:27.396Z,57.16
2022-12-26T07:49:00.349Z,58.77
2022-12-26T07:51:33.029Z,60.43
2022-12-26T07:54:11.061Z,63.29
2022-12-26T07:56:45.215Z,65.28
2022-12-26T07:59:19.065Z,65.06
2022-12-26T08:01:51.799Z,64.94
2022-12-26T08:04:24.598Z,64.43
2022-12-26T08:06:57.244Z,62.33
2022-12-26T08:09:32.043Z,61.82
2022-12-26T08:12:04.886Z,61.53
2022-12-26T08:14:37.748Z,61.08
2022-12-26T08:17:13.647Z,60.49
2022-12-26T08:19:46.205Z,60.81
2022-12-26T08:22:19.652Z,61.22
2022-12-26T08:24:52.281Z,59.86
2022-12-26T08:27:24.967Z,57.41
2022-12-26T08:29:57.584Z,57.08
2022-12-26T08:32:30.483Z,58.20
2022-12-26T08:35:03.419Z,59.85
2022-12-26T08:37:36.110Z,61.57
2022-12-26T08:40:11.179Z,63.19
2022-12-26T08:43:11.802Z,66.21
2022-12-26T08:45:38.160Z,64.80
2022-12-26T08:48:11.707Z,62.17
2022-12-26T08:50:44.311Z,60.17
2022-12-26T08:53:17.011Z,57.42
2022-12-26T08:55:51.266Z,56.88
2022-12-26T08:58:24.153Z,57.09
2022-12-26T09:00:57.098Z,58.85
2022-12-26T09:03:29.846Z,60.65
2022-12-26T09:06:06.458Z,63.42
2022-12-26T09:08:40.941Z,64.93
2022-12-26T09:11:16.192Z,63.43
2022-12-26T09:13:49.399Z,62.77
2022-12-26T09:16:24.807Z,60.94
2022-12-26T09:19:01.740Z,57.41
2022-12-26T09:21:34.906Z,55.52
2022-12-26T09:24:09.782Z,56.91
2022-12-26T09:26:42.654Z,58.44
2022-12-26T09:29:16.372Z,59.75
2022-12-26T09:31:49.820Z,61.22
2022-12-26T09:34:22.510Z,64.57
2022-12-26T09:36:55.167Z,65.68
2022-12-26T09:39:27.985Z,63.86
2022-12-26T09:42:09.893Z,62.04
2022-12-26T09:44:53.722Z,61.14
2022-12-26T09:47:35.470Z,60.15
2022-12-26T09:50:16.311Z,57.60
2022-12-26T09:52:53.392Z,56.61
2022-12-26T09:55:38.019Z,57.66
2022-12-26T09:58:21.143Z,59.76
2022-12-26T10:00:58.561Z,60.76
2022-12-26T10:03:31.974Z,63.18
2022-12-26T10:06:14.738Z,65.19
2022-12-26T10:09:21.255Z,63.82
2022-12-26T10:12:19.142Z,62.39
2022-12-26T10:14:59.040Z,61.47
2022-12-26T10:17:41.759Z,60.46
2022-12-26T10:20:28.885Z,58.06
2022-12-26T10:23:37.158Z,57.14
2022-12-26T10:26:15.742Z,57.74
2022-12-26T10:28:52.293Z,59.66
2022-12-26T10:31:31.883Z,60.42
2022-12-26T10:34:12.356Z,63.41
2022-12-26T10:36:50.039Z,65.59
2022-12-26T10:39:27.859Z,64.71
2022-12-26T10:42:05.155Z,62.83
2022-12-26T10:44:37.669Z,60.91
2022-12-26T10:47:26.744Z,57.96
2022-12-26T10:50:00.235Z,56.46
2022-12-26T10:52:38.274Z,57.76
2022-12-26T10:55:29.719Z,59.67
2022-12-26T10:58:15.977Z,60.62
2022-12-26T11:00:48.886Z,64.03
2022-12-26T11:03:22.885Z,65.36
2022-12-26T11:06:13.403Z,63.31
2022-12-26T11:08:51.943Z,61.65
2022-12-26T11:11:27.335Z,58.62
2022-12-26T11:14:04.390Z,56.85
2022-12-26T11:16:41.562Z,57.47
2022-12-26T11:19:29.875Z,58.55
2022-12-26T11:22:26.974Z,59.82
2022-12-26T11:25:19.969Z,60.61
2022-12-26T11:27:55.159Z,65.12
2022-12-26T11:30:33.121Z,65.48
2022-12-26T11:33:24.393Z,63.13
2022-12-26T11:36:06.721Z,62.59
2022-12-26T11:38:50.842Z,61.11
2022-12-26T11:41:42.356Z,58.43
2022-12-26T11:44:23.897Z,56.54
2022-12-26T11:47:00.944Z,57.93
2022-12-26T11:49:37.445Z,59.11
2022-12-26T11:52:38.036Z,60.41
2022-12-26T11:55:34.756Z,63.84
2022-12-26T11:58:23.002Z,65.21
2022-12-26T12:01:14.425Z,63.82
2022-12-26T12:06:49.465Z,60.86
2022-12-26T12:09:30.329Z,59.91
2022-12-26T12:12:11.419Z,57.68
2022-12-26T12:14:56.629Z,56.61
2022-12-26T12:17:37.146Z,57.73
2022-12-26T12:20:30.258Z,59.43
2022-12-26T12:23:21.057Z,59.73
2022-12-26T12:26:10.775Z,63.45
2022-12-26T12:29:08.693Z,66.24
2022-12-26T12:31:44.940Z,64.62
2022-12-26T12:34:32.340Z,62.66
2022-12-26T12:37:19.548Z,60.27
2022-12-26T12:40:01.611Z,57.77
2022-12-26T12:42:46.688Z,56.89
2022-12-26T12:45:28.486Z,57.38
2022-12-26T12:48:24.690Z,58.88
2022-12-26T12:51:06.101Z,60.15
2022-12-26T12:53:58.725Z,63.16
2022-12-26T12:56:42.624Z,65.32
2022-12-26T12:59:27.316Z,64.02
2022-12-26T13:02:10.318Z,61.57
2022-12-26T13:04:49.434Z,60.19
2022-12-26T13:07:27.063Z,57.83
2022-12-26T13:10:02.125Z,56.82
2022-12-26T13:12:40.546Z,57.38
2022-12-26T13:15:35.967Z,58.33
2022-12-26T13:18:15.057Z,59.51
2022-12-26T13:20:50.255Z,60.90
2022-12-26T13:23:45.815Z,64.33
2022-12-26T13:26:23.945Z,66.03
2022-12-26T13:28:59.853Z,64.95
2022-12-26T13:31:37.323Z,65.33
2022-12-26T13:34:15.641Z,61.94
2022-12-26T13:36:49.728Z,58.66
2022-12-26T13:39:47.932Z,56.75
2022-12-26T13:42:49.588Z,57.28
2022-12-26T13:45:58.309Z,58.57
2022-12-26T13:49:08.251Z,59.62
2022-12-26T13:51:57.308Z,64.62
2022-12-26T13:54:31.775Z,66.18
2022-12-26T13:57:44.636Z,64.16
2022-12-26T14:00:20.828Z,62.69
2022-12-26T14:03:24.524Z,61.11
2022-12-26T14:06:18.133Z,60.54
2022-12-26T14:09:13.893Z,58.16
2022-12-26T14:12:11.092Z,57.13
2022-12-26T14:14:57.087Z,58.50
2022-12-26T14:17:48.243Z,60.38
2022-12-26T14:20:39.009Z,64.61
2022-12-26T14:23:30.185Z,66.80
2022-12-26T14:26:09.194Z,65.22
2022-12-26T14:28:59.206Z,63.62
2022-12-26T14:31:42.475Z,62.84
2022-12-26T14:34:28.847Z,62.01
2022-12-26T14:37:15.927Z,62.44
2022-12-26T14:40:10.409Z,61.72
2022-12-26T14:43:12.117Z,60.41
2022-12-26T14:45:49.013Z,56.79
2022-12-26T14:48:44.207Z,55.96
2022-12-26T14:51:42.365Z,57.51
2022-12-26T14:54:51.246Z,59.12
2022-12-26T14:57:56.595Z,64.10
2022-12-26T15:00:35.809Z,66.39
2022-12-26T15:03:40.767Z,65.02
2022-12-26T15:06:54.918Z,64.16
2022-12-26T15:09:55.669Z,62.74
2022-12-26T15:13:04.004Z,62.10
2022-12-26T15:15:46.335Z,61.74
2022-12-26T15:18:43.401Z,60.94
2022-12-26T15:21:45.933Z,60.45
2022-12-26T15:25:17.997Z,60.03
2022-12-26T15:28:24.380Z,59.77
2022-12-26T15:31:16.138Z,60.25
2022-12-26T15:33:55.403Z,60.07
2022-12-26T15:36:37.554Z,59.97
2022-12-26T15:39:23.016Z,59.70
2022-12-26T15:42:06.147Z,57.98
2022-12-26T15:44:52.094Z,57.31
2022-12-26T15:47:35.370Z,59.05
2022-12-26T15:50:20.453Z,62.76
2022-12-26T15:53:03.645Z,65.26
2022-12-26T15:55:52.494Z,64.45
2022-12-26T15:58:45.506Z,63.38
2022-12-26T16:01:38.710Z,62.37
2022-12-26T16:04:19.478Z,61.85
2022-12-26T16:07:11.015Z,61.12
2022-12-26T16:09:48.377Z,60.85
2022-12-26T16:12:27.341Z,60.41
2022-12-26T16:15:20.925Z,59.92
2022-12-26T16:17:53.839Z,60.01
2022-12-26T16:20:53.251Z,59.52
2022-12-26T16:23:31.743Z,59.81
2022-12-26T16:26:04.579Z,58.36
2022-12-26T16:28:41.707Z,57.51
2022-12-26T16:31:20.917Z,58.80
2022-12-26T16:33:58.620Z,60.14
2022-12-26T16:36:35.843Z,64.61
2022-12-26T16:39:14.316Z,66.25
2022-12-26T16:42:06.433Z,65.00
2022-12-26T16:44:44.547Z,63.67
2022-12-26T16:47:18.496Z,63.06
2022-12-26T16:49:52.132Z,62.66
2022-12-26T16:52:40.561Z,62.83
2022-12-26T16:55:37.984Z,62.54
2022-12-26T16:58:21.953Z,61.75
2022-12-26T17:01:13.528Z,61.08
2022-12-26T17:03:54.304Z,60.72
2022-12-26T17:06:31.631Z,60.95
2022-12-26T17:09:17.159Z,60.51
2022-12-26T17:11:55.070Z,60.79
2022-12-26T17:14:33.116Z,60.79
2022-12-26T17:17:08.471Z,60.71
2022-12-26T17:19:41.055Z,59.80
2022-12-26T17:22:33.217Z,58.08
2022-12-26T17:25:28.066Z,57.76
2022-12-26T17:28:29.991Z,59.57
2022-12-26T17:31:17.845Z,64.22
2022-12-26T17:33:50.795Z,66.18
2022-12-26T17:39:23.716Z,62.70
2022-12-26T17:41:59.297Z,61.83
2022-12-26T17:44:44.096Z,61.54
2022-12-26T17:47:23.437Z,60.40
2022-12-26T17:49:57.055Z,60.17
2022-12-26T17:52:32.056Z,60.16
2022-12-26T17:55:12.901Z,60.11
2022-12-26T17:57:45.745Z,60.17
2022-12-26T18:00:24.765Z,60.11
2022-12-26T18:02:57.433Z,60.49
2022-12-26T18:05:31.787Z,59.67
2022-12-26T18:08:04.965Z,57.96
2022-12-26T18:10:39.063Z,57.78
2022-12-26T18:13:18.628Z,59.44
2022-12-26T18:15:52.099Z,63.13
2022-12-26T18:18:32.715Z,65.95
2022-12-26T18:21:07.294Z,65.28
2022-12-26T18:23:40.388Z,64.27
2022-12-26T18:26:21.648Z,63.61
2022-12-26T18:28:55.541Z,63.04
2022-12-26T18:31:28.528Z,63.26
2022-12-26T18:34:01.240Z,62.36
2022-12-26T18:36:36.516Z,61.71
2022-12-26T18:39:09.071Z,62.09
2022-12-26T18:41:42.189Z,61.99
2022-12-26T18:44:15.799Z,62.25
2022-12-26T18:46:48.295Z,62.58
2022-12-26T18:49:20.765Z,62.98
2022-12-26T18:51:53.838Z,62.38
2022-12-26T18:54:26.361Z,62.01
2022-12-26T18:56:58.847Z,62.21
2022-12-26T18:59:31.338Z,62.99
2022-12-26T19:02:04.108Z,62.90
2022-12-26T19:04:37.921Z,63.86
2022-12-26T19:07:11.021Z,63.74
2022-12-26T19:09:47.396Z,63.27
2022-12-26T19:12:19.994Z,62.99
2022-12-26T19:14:52.686Z,62.76
2022-12-26T19:17:26.111Z,62.60
2022-12-26T19:19:59.262Z,62.48
2022-12-26T19:22:32.537Z,62.37
2022-12-26T19:25:06.161Z,62.27
2022-12-26T19:27:40.488Z,61.75
2022-12-26T19:30:14.576Z,61.47
2022-12-26T19:32:47.631Z,61.50
2022-12-26T19:35:21.383Z,61.49
2022-12-26T19:37:54.152Z,61.66
2022-12-26T19:40:28.021Z,61.49
2022-12-26T19:43:00.873Z,61.75
2022-12-26T19:45:33.930Z,62.57
2022-12-26T19:48:07.115Z,62.68
2022-12-26T19:50:39.746Z,62.45
2022-12-26T19:53:13.667Z,62.21
2022-12-26T19:55:46.186Z,62.09
2022-12-26T19:58:18.722Z,62.61
2022-12-26T20:00:51.610Z,63.23
2022-12-26T20:03:24.277Z,63.39
2022-12-26T20:05:56.765Z,62.36
2022-12-26T20:08:29.889Z,62.91
2022-12-26T20:11:08.239Z,63.11
2022-12-26T20:13:39.097Z,63.22
2022-12-26T20:16:45.730Z,63.48
2022-12-26T20:19:09.078Z,63.21
2022-12-26T20:21:41.636Z,63.05
2022-12-26T20:24:14.818Z,63.03
2022-12-26T20:26:47.427Z,63.32
2022-12-26T20:29:20.161Z,62.60
2022-12-26T20:31:55.410Z,62.40
2022-12-26T20:34:27.940Z,63.57
2022-12-26T20:37:00.957Z,62.67
2022-12-26T20:39:34.907Z,63.18
2022-12-26T20:42:07.563Z,62.92
2022-12-26T20:44:41.619Z,62.17
2022-12-26T20:47:14.260Z,62.12
2022-12-26T20:49:51.267Z,62.45
2022-12-26T20:52:23.749Z,61.72
2022-12-26T20:54:56.445Z,62.10
2022-12-26T20:57:29.163Z,62.63
2022-12-26T21:00:02.747Z,62.98
2022-12-26T21:02:35.262Z,62.96
2022-12-26T21:05:08.964Z,63.34
2022-12-26T21:07:41.549Z,64.13
2022-12-26T21:10:15.717Z,64.11
2022-12-26T21:12:48.208Z,64.93
2022-12-26T21:15:20.823Z,65.90
2022-12-26T21:17:53.620Z,64.70
2022-12-26T21:20:26.172Z,64.00
2022-12-26T21:22:59.073Z,62.93
2022-12-26T21:25:31.920Z,62.29
2022-12-26T21:28:05.402Z,61.58
2022-12-26T21:30:37.909Z,61.56
2022-12-26T21:33:11.683Z,61.31
2022-12-26T21:35:44.211Z,60.99
2022-12-26T21:38:16.781Z,60.80
2022-12-26T21:40:49.469Z,60.54
2022-12-26T21:43:30.345Z,61.04
2022-12-26T21:46:06.686Z,61.52
2022-12-26T21:48:39.510Z,62.30
2022-12-26T21:51:12.190Z,62.75
2022-12-26T21:53:46.367Z,61.62
2022-12-26T21:56:20.077Z,61.20
2022-12-26T21:59:21.255Z,60.65
2022-12-26T22:01:55.070Z,60.63
2022-12-26T22:04:29.413Z,62.28
2022-12-26T22:07:02.259Z,62.41
2022-12-26T22:09:34.909Z,61.49
2022-12-26T22:12:25.327Z,61.45
2022-12-26T22:14:57.849Z,61.57
2022-12-26T22:17:32.711Z,61.41
2022-12-26T22:20:05.505Z,61.23
2022-12-26T22:22:38.076Z,61.39
2022-12-26T22:25:11.441Z,61.55
2022-12-26T22:27:44.186Z,61.98
2022-12-26T22:30:17.175Z,62.89
2022-12-26T22:32:50.485Z,63.63
2022-12-26T22:35:23.115Z,64.11
2022-12-26T22:37:55.592Z,64.55
2022-12-26T22:40:29.853Z,64.97
2022-12-26T22:43:03.350Z,65.20
2022-12-26T22:45:36.233Z,65.44
2022-12-26T22:48:09.188Z,65.63
2022-12-26T22:50:45.430Z,65.78
2022-12-26T22:53:17.892Z,65.99
2022-12-26T22:55:53.116Z,65.97
2022-12-26T22:58:25.701Z,65.85
2022-12-26T23:00:59.031Z,65.86
2022-12-26T23:03:31.979Z,66.01
2022-12-26T23:06:16.961Z,66.15
2022-12-26T23:08:50.948Z,66.29
2022-12-26T23:11:28.771Z,66.35
2022-12-26T23:14:10.628Z,66.34
2022-12-26T23:16:51.691Z,66.21
2022-12-26T23:19:50.326Z,66.41
2022-12-26T23:22:23.612Z,67.28
2022-12-26T23:24:56.135Z,66.84
2022-12-26T23:28:00.783Z,66.10
2022-12-26T23:30:33.405Z,65.76
2022-12-26T23:33:06.032Z,63.98
2022-12-26T23:35:40.187Z,62.65
2022-12-26T23:38:12.679Z,61.24
2022-12-26T23:40:45.486Z,60.34
2022-12-26T23:43:18.362Z,57.91
2022-12-26T23:45:51.093Z,56.93
2022-12-26T23:48:24.716Z,58.05
2022-12-26T23:51:07.580Z,59.52
2022-12-26T23:53:40.198Z,64.59
2022-12-26T23:56:13.154Z,67.30
2022-12-26T23:58:46.117Z,65.94
